UTTT/TAS METAR and TAF weather

Enter ICAO airport designator
Station Type Date Time Source
UTTT METAR 2021/09/16 21:30 UTC NOAA

UTTT 162130Z 04006KT CAVOK 19/03 Q1011 R08R/CLRD70 NOSIG


Station Type Date Time Source
UTTT Decoded METAR 2021/09/16 21:30 UTC NOAA

Tashkent, Uzbekistan (UTTT) 41-16N 069-16E 488M
Sep 16, 2021 - 05:30 PM EDT / 2021.09.16 2130 UTC
Wind: from the NE (040 degrees) at 7 MPH (6 KT):0
Visibility: greater than 7 mile(s):0
Temperature: 66 F (19 C)
Dew Point: 37 F (3 C)
Relative Humidity: 34%
Pressure (altimeter): 29.85 in. Hg (1011 hPa)
ob: UTTT 162130Z 04006KT CAVOK 19/03 Q1011 R08R/CLRD70 NOSIG
cycle: 21

Station Type Date Time Source
UTTT TAF 2021/09/16 18:09 UTC NOAA

TAF UTTT 161700Z 1618/1718 09010KT 7000 NSC TX35/1710Z

Example: see airport list